Stillwater, OK

6:03 AM CST on February 10, 2016 (GMT -0600)
Stillwater Municipal | | Change Station
CLOSE
Current Station
Airport
Location: Stillwater,
Elevation: 981 ft
Nearby Weather Stations
Active Advisory: Fire Weather Warning

Elev 981 ft 36.16 °N, 97.09 °W | Updated 10 minutes ago

Clear
Clear
26 °F
Feels Like 18 °F
N
8
Wind Variable Wind from SSE

Today
High -- | Low -- °F
--% Chance of Precip.
Yesterday
High -- | Low -- °F
Precip. -- in
Pressure 30.26 in
Visibility 10.0 miles
Clouds Clear
Windchill 18 °F
Dew Point 17 °F
Humidity 69%
Rainfall 0.00 in
Snow Depth Not available.
7:21 AM 6:04 PM
Waxing Crescent, 5% visible
METAR KSWO 101153Z AUTO 15007KT 10SM CLR M03/M08 A3024 RMK AO2 SLP245 T10331083 11022 21044 56017 TSNO
Pressure 30.26 in
Visibility 10.0 miles
Clouds Clear
Windchill 18 °F
Dew Point 17 °F
Humidity 69%
Rainfall 0.00 in
Snow Depth Not available.
7:21 AM 6:04 PM
Waxing Crescent, 5% visible
METAR KSWO 101153Z AUTO 15007KT 10SM CLR M03/M08 A3024 RMK AO2 SLP245 T10331083 11022 21044 56017 TSNO

10-Day Weather Forecast

Almanac

Astronomy

Feb. 10, 2016 Rise Set
Actual Time
Civil Twilight
Nautical Twilight
Astronomical Twilight
Moon
Length of Visible Light
Length of Day
Tomorrow will be .
, % of the Moon is Illuminated

Today's Extremes

State Highs State Lows

Community

WunderPhotos

Upload Photos

1,891,834 photos uploaded!

WunderBlog® & News

Nearby

Air Quality

  Air Quality AQ Index Pollutant
Not available.

Snow Depth

Station Depth Elevation

Earthquake Activity

City Distance Mag. Time & Date
Minimum magnitude displayed is 2.5.

Coastal Water Temperatures

Place Temperature

Stations

Nearby Weather Stations

Station Location Temp. Windchill Dew Point Humidity Wind Precip. Elev Updated Type
                   

Watches & Warnings

Fire Weather Warning
Issued: 4:21 AM CST Feb. 10, 2016 – National Weather Service

... Red flag warning in effect from 11 am this morning to 7 PM CST
this evening for windy conditions... warm temperatures and low
relative humidity for much of central and western Oklahoma... and
western North Texas...

The National Weather Service in Norman has issued a red flag
warning... which is in effect from 11 am this morning to 7 PM CST
this evening. The Fire Weather Watch is no longer in effect.

* Timing... 11 am to 7 PM.

* Wind... west to southwest 15 to 25 mph with gusts 20 to 30 mph.

* Humidity... 15 to 25 percent.

* Temperature... 65 to 80 degrees.

* Impacts... any fires that develop will likely spread rapidly.
Outdoor burning is not recommended.

Precautionary/preparedness actions...

A red flag warning means that critical fire weather conditions
are either occurring now... or will shortly. A combination of
strong winds... low relative humidity... and warm temperatures can
contribute to extreme fire behavior.



Cms